Time;durP1;ratioP1;P1;durP2;ratioP2;P2;SDS_P1;SDS_P2;PMS_P1;PMS_P2;Temp;Humidity;BMP_temperature;BMP_pressure;BME280_temperature;BME280_humidity;BME280_pressure;Samples;Min_cycle;Max_cycle;Signal;HPM_P1;HPM_P2
2022/10/29 00:01:25;;;;;;;3.13;2.30;;;18.50;87.50;;;;;;5070033;28;20882;-72
2022/10/29 00:03:54;;;;;;;2.57;2.27;;;18.50;87.50;;;;;;5069848;28;20456;-72
2022/10/29 00:06:22;;;;;;;2.43;2.20;;;18.50;87.50;;;;;;5074464;28;20529;-72
2022/10/29 00:08:50;;;;;;;2.90;2.60;;;18.50;87.60;;;;;;5061513;28;20449;-72
2022/10/29 00:11:21;;;;;;;5.37;2.50;;;18.50;87.60;;;;;;5069416;28;20481;-72
2022/10/29 00:13:54;;;;;;;5.53;3.40;;;18.50;87.50;;;;;;5063440;28;20461;-72
2022/10/29 00:16:24;;;;;;;3.73;2.80;;;18.50;87.60;;;;;;5083746;28;20461;-72
2022/10/29 00:18:53;;;;;;;2.90;2.70;;;18.50;87.70;;;;;;5087843;28;20453;-72
2022/10/29 00:21:25;;;;;;;3.57;2.40;;;18.50;87.60;;;;;;5083064;28;20497;-72
2022/10/29 00:23:53;;;;;;;3.93;2.57;;;18.50;87.70;;;;;;5070183;28;20454;-72
2022/10/29 00:26:24;;;;;;;2.40;2.20;;;18.50;87.50;;;;;;5068875;28;20512;-72
2022/10/29 00:28:55;;;;;;;3.47;2.60;;;18.50;87.70;;;;;;5070359;28;20548;-72
2022/10/29 00:31:24;;;;;;;3.27;2.50;;;18.50;87.80;;;;;;5084088;28;20458;-72
2022/10/29 00:33:54;;;;;;;2.47;2.27;;;18.50;87.60;;;;;;5079970;28;20882;-72
2022/10/29 00:36:25;;;;;;;3.70;2.67;;;18.50;87.70;;;;;;5068213;28;20682;-72
2022/10/29 00:38:54;;;;;;;3.43;2.60;;;18.50;87.80;;;;;;5055273;28;20441;-72
2022/10/29 00:41:26;;;;;;;3.20;2.30;;;18.50;87.70;;;;;;5071530;28;20469;-72
2022/10/29 00:44:30;;;;;;;2.33;2.13;;;18.50;87.70;;;;;;5070254;28;20430;-72
2022/10/29 00:47:04;;;;;;;5.43;2.73;;;18.50;87.60;;;;;;5071157;28;20468;-72
2022/10/29 00:49:34;;;;;;;3.60;3.30;;;18.50;87.80;;;;;;5075514;28;20450;-72
2022/10/29 00:52:04;;;;;;;2.70;2.50;;;18.50;87.60;;;;;;5056133;28;20512;-72
2022/10/29 00:54:37;;;;;;;2.77;2.03;;;18.50;87.70;;;;;;5069913;28;20471;-72
2022/10/29 00:57:11;;;;;;;3.40;2.50;;;18.50;87.60;;;;;;5061848;28;20473;-72
2022/10/29 00:59:40;;;;;;;3.83;2.97;;;18.50;87.60;;;;;;5085812;28;20960;-72
2022/10/29 01:02:10;;;;;;;2.90;2.10;;;18.50;87.60;;;;;;5064257;28;20513;-72
2022/10/29 01:04:39;;;;;;;2.87;2.50;;;18.50;87.60;;;;;;5082988;28;20528;-72
2022/10/29 01:07:08;;;;;;;3.13;2.30;;;18.50;87.60;;;;;;5064055;28;20465;-72
2022/10/29 01:09:36;;;;;;;2.33;2.13;;;18.50;87.50;;;;;;5058929;28;20469;-72
2022/10/29 01:12:20;;;;;;;4.40;2.97;;;18.50;87.70;;;;;;5067746;28;20476;-72
2022/10/29 01:15:00;;;;;;;2.90;2.57;;;18.50;87.60;;;;;;5061728;28;20943;-72
2022/10/29 01:17:36;;;;;;;3.07;2.50;;;18.50;87.60;;;;;;5053355;28;20446;-72
2022/10/29 01:20:40;;;;;;;3.27;2.97;;;18.50;87.60;;;;;;5069861;28;20520;-72
2022/10/29 01:23:36;;;;;;;2.20;2.00;;;18.50;87.40;;;;;;5065832;28;20462;-72
2022/10/29 01:26:26;;;;;;;2.57;2.37;;;18.50;87.80;;;;;;5063032;28;20461;-72
2022/10/29 01:29:08;;;;;;;3.60;2.00;;;18.50;87.80;;;;;;5074984;28;20485;-72
2022/10/29 01:31:47;;;;;;;3.43;2.73;;;18.40;87.60;;;;;;5076028;28;20453;-72
2022/10/29 01:34:23;;;;;;;2.90;2.50;;;18.50;87.80;;;;;;5070563;28;20548;-72
2022/10/29 01:36:57;;;;;;;4.83;2.53;;;18.50;87.70;;;;;;5061730;28;20469;-72
2022/10/29 01:39:33;;;;;;;4.63;2.70;;;18.40;87.60;;;;;;5060474;28;20553;-72
2022/10/29 01:42:08;;;;;;;2.47;2.13;;;18.50;87.70;;;;;;5075746;28;20479;-72
2022/10/29 01:44:41;;;;;;;2.83;2.30;;;18.40;87.50;;;;;;5076437;28;20421;-72
2022/10/29 01:47:15;;;;;;;3.20;2.37;;;18.40;87.50;;;;;;5065095;28;20803;-72
2022/10/29 01:49:50;;;;;;;2.37;1.93;;;18.50;87.70;;;;;;5061907;28;21048;-72
2022/10/29 01:52:22;;;;;;;2.90;2.50;;;18.50;87.80;;;;;;5089732;28;20470;-72
2022/10/29 01:54:50;;;;;;;3.10;2.57;;;18.40;87.70;;;;;;5079336;28;20497;-72
2022/10/29 01:57:30;;;;;;;3.57;2.67;;;18.40;87.60;;;;;;5077625;28;20434;-72
2022/10/29 02:00:18;;;;;;;3.00;2.30;;;18.40;87.60;;;;;;5086231;28;20876;-72
2022/10/29 02:03:22;;;;;;;2.73;2.37;;;18.40;87.50;;;;;;5086009;28;20443;-72
2022/10/29 02:05:58;;;;;;;2.43;2.23;;;18.40;87.60;;;;;;5103201;22;20475;-51
2022/10/29 02:08:36;;;;;;;2.20;1.90;;;18.40;87.50;;;;;;5048945;28;20482;-53
2022/10/29 02:11:13;;;;;;;2.70;2.17;;;18.40;87.60;;;;;;5048901;28;20463;-53
2022/10/29 02:13:49;;;;;;;2.63;2.43;;;18.40;87.60;;;;;;5031965;28;20458;-51
2022/10/29 02:16:18;;;;;;;2.33;2.13;;;18.40;87.60;;;;;;5013553;28;20463;-51
2022/10/29 02:18:49;;;;;;;3.80;2.27;;;18.40;87.60;;;;;;5029741;28;20439;-50
2022/10/29 02:21:18;;;;;;;3.73;2.40;;;18.40;87.60;;;;;;5035018;28;20471;-51
2022/10/29 02:23:47;;;;;;;7.57;2.60;;;18.40;87.50;;;;;;5031675;28;20428;-52
2022/10/29 02:26:16;;;;;;;3.60;2.70;;;18.40;87.70;;;;;;5030510;28;20463;-52
2022/10/29 02:28:45;;;;;;;2.43;2.23;;;18.40;87.70;;;;;;5028121;28;20438;-51
2022/10/29 02:31:14;;;;;;;2.20;2.00;;;18.40;87.60;;;;;;5031288;28;20467;-51
2022/10/29 02:33:42;;;;;;;3.73;2.53;;;18.40;87.60;;;;;;5028752;28;20456;-50
2022/10/29 02:36:12;;;;;;;2.33;2.00;;;18.40;87.70;;;;;;5030843;28;20962;-52
2022/10/29 02:38:41;;;;;;;2.53;2.00;;;18.40;87.60;;;;;;5031790;28;20447;-54
2022/10/29 02:41:09;;;;;;;3.27;2.40;;;18.40;87.50;;;;;;5011213;28;20490;-51
2022/10/29 02:43:38;;;;;;;8.10;2.50;;;18.40;87.60;;;;;;5047262;28;20539;-51
2022/10/29 02:46:11;;;;;;;2.50;2.10;;;18.40;87.70;;;;;;5031197;28;20959;-51
2022/10/29 02:48:39;;;;;;;3.00;2.80;;;18.40;87.60;;;;;;5030624;28;20888;-51
2022/10/29 02:51:08;;;;;;;2.93;1.77;;;18.40;87.60;;;;;;5030314;28;20467;-50
2022/10/29 02:53:39;;;;;;;5.10;2.60;;;18.40;87.60;;;;;;5030687;28;20962;-52
2022/10/29 02:56:08;;;;;;;3.07;2.83;;;18.40;87.60;;;;;;5030563;28;20483;-52
2022/10/29 02:58:37;;;;;;;3.00;1.97;;;18.40;87.60;;;;;;5046802;28;20810;-50
2022/10/29 03:01:06;;;;;;;3.40;3.10;;;18.40;87.50;;;;;;5031066;28;20470;-50
2022/10/29 03:03:36;;;;;;;3.60;2.33;;;18.40;87.60;;;;;;5033786;28;20444;-51
2022/10/29 03:06:11;;;;;;;2.27;2.07;;;18.40;87.50;;;;;;5029486;28;20476;-51
2022/10/29 03:08:41;;;;;;;2.57;2.37;;;18.40;87.50;;;;;;5031434;28;20969;-51
2022/10/29 03:11:10;;;;;;;3.00;2.23;;;18.40;87.60;;;;;;5037868;28;20495;-51
2022/10/29 03:13:39;;;;;;;2.03;1.90;;;18.40;87.50;;;;;;5033343;28;20478;-50
2022/10/29 03:16:08;;;;;;;1.90;1.80;;;18.40;87.40;;;;;;5029480;28;20555;-52
2022/10/29 03:18:36;;;;;;;2.93;2.10;;;18.30;87.30;;;;;;5030134;28;20440;-51
2022/10/29 03:21:05;;;;;;;4.80;2.50;;;18.40;87.50;;;;;;5029641;28;20918;-50
2022/10/29 03:23:33;;;;;;;2.10;1.90;;;18.40;87.40;;;;;;5031074;28;20531;-54
2022/10/29 03:26:04;;;;;;;2.70;2.50;;;18.40;87.40;;;;;;5026037;28;20559;-52
2022/10/29 03:28:32;;;;;;;2.50;2.30;;;18.40;87.40;;;;;;5031021;28;20431;-51
2022/10/29 03:31:01;;;;;;;2.80;2.20;;;18.40;87.40;;;;;;5034536;28;20529;-51
2022/10/29 03:33:29;;;;;;;2.10;1.90;;;18.40;87.40;;;;;;5027934;28;21128;-51
2022/10/29 03:35:59;;;;;;;3.23;2.93;;;18.40;87.40;;;;;;5012820;28;20492;-53
2022/10/29 03:38:27;;;;;;;2.83;1.87;;;18.40;87.40;;;;;;5030633;28;20456;-50
2022/10/29 03:40:56;;;;;;;3.40;2.57;;;18.40;87.40;;;;;;5028650;28;20459;-51
2022/10/29 03:43:26;;;;;;;3.10;2.40;;;18.40;87.40;;;;;;5041229;28;20436;-51
2022/10/29 03:45:56;;;;;;;2.80;2.03;;;18.40;87.40;;;;;;5028857;28;20554;-50
2022/10/29 03:48:25;;;;;;;5.03;2.90;;;18.40;87.40;;;;;;5023951;28;20448;-51
2022/10/29 03:50:55;;;;;;;4.27;2.80;;;18.40;87.50;;;;;;5029354;28;21063;-52
2022/10/29 03:53:24;;;;;;;2.20;2.00;;;18.40;87.40;;;;;;5030041;28;20519;-49
2022/10/29 03:55:53;;;;;;;6.00;1.80;;;18.40;87.40;;;;;;5029105;28;20470;-52
2022/10/29 03:58:23;;;;;;;2.40;2.20;;;18.40;87.40;;;;;;5029075;28;20789;-51
2022/10/29 04:00:58;;;;;;;4.00;1.80;;;18.30;87.30;;;;;;5029804;28;20440;-51
2022/10/29 04:03:28;;;;;;;2.87;2.17;;;18.30;87.40;;;;;;5028466;28;20538;-51
2022/10/29 04:05:57;;;;;;;2.50;1.90;;;18.40;87.40;;;;;;5034135;28;20498;-52
2022/10/29 04:08:26;;;;;;;4.83;2.57;;;18.30;87.40;;;;;;5032360;28;20474;-50
2022/10/29 04:10:55;;;;;;;2.00;1.80;;;18.30;87.40;;;;;;5039245;28;20503;-52
2022/10/29 04:13:23;;;;;;;2.90;2.10;;;18.30;87.40;;;;;;5029785;28;20448;-51
2022/10/29 04:15:54;;;;;;;3.10;1.97;;;18.30;87.40;;;;;;5013197;28;20468;-51
2022/10/29 04:18:24;;;;;;;2.50;2.30;;;18.30;87.30;;;;;;5028928;28;20440;-51
2022/10/29 04:20:53;;;;;;;5.10;1.83;;;18.30;88.60;;;;;;5028738;28;20952;-50
2022/10/29 04:23:42;;;;;;;4.70;2.63;;;18.30;87.40;;;;;;5038008;28;20435;-50
2022/10/29 04:26:30;;;;;;;2.60;2.20;;;18.30;87.30;;;;;;5025842;28;20558;-53
2022/10/29 04:29:19;;;;;;;2.53;2.33;;;18.30;87.50;;;;;;5029587;28;20440;-52
2022/10/29 04:31:47;;;;;;;3.30;2.40;;;18.30;87.40;;;;;;5007229;28;21170;-50
2022/10/29 04:34:17;;;;;;;2.20;1.80;;;18.30;87.50;;;;;;5042145;28;20558;-51
2022/10/29 04:36:46;;;;;;;2.90;2.47;;;18.30;87.50;;;;;;5028376;28;21020;-50
2022/10/29 04:39:14;;;;;;;2.60;2.40;;;18.30;87.60;;;;;;5029731;28;21011;-50
2022/10/29 04:41:49;;;;;;;2.30;2.10;;;18.30;87.80;;;;;;5026127;28;20484;-52
2022/10/29 04:44:18;;;;;;;1.70;1.40;;;18.30;87.70;;;;;;5029894;28;20877;-51
2022/10/29 04:46:47;;;;;;;4.20;2.03;;;18.30;87.70;;;;;;5027247;28;21061;-52
2022/10/29 04:49:17;;;;;;;3.00;2.20;;;18.30;87.70;;;;;;5029800;28;20424;-51
2022/10/29 04:51:46;;;;;;;2.67;2.20;;;18.30;87.70;;;;;;5027971;28;20480;-51
2022/10/29 04:54:15;;;;;;;3.30;2.80;;;18.30;87.70;;;;;;5036955;28;20526;-49
2022/10/29 04:56:44;;;;;;;2.37;1.77;;;18.30;87.50;;;;;;5027788;28;20504;-50
2022/10/29 04:59:12;;;;;;;1.87;1.67;;;18.30;87.60;;;;;;5029654;28;20450;-50
2022/10/29 05:01:41;;;;;;;2.37;2.17;;;18.30;87.60;;;;;;5026244;28;20475;-51
2022/10/29 05:04:09;;;;;;;2.47;1.90;;;18.30;87.60;;;;;;5041103;28;20436;-54
2022/10/29 05:06:39;;;;;;;4.10;2.50;;;18.30;87.40;;;;;;5027885;28;20490;-52
2022/10/29 05:09:08;;;;;;;2.20;1.80;;;18.20;87.30;;;;;;5012720;28;20885;-52
2022/10/29 05:11:36;;;;;;;2.00;1.90;;;18.20;87.30;;;;;;5026811;28;20506;-51
2022/10/29 05:14:05;;;;;;;2.13;1.93;;;18.30;87.30;;;;;;5029546;28;20421;-51
2022/10/29 05:16:34;;;;;;;2.37;2.00;;;18.30;87.40;;;;;;5027219;28;20475;-54
2022/10/29 05:19:03;;;;;;;2.10;1.90;;;18.30;87.40;;;;;;5040644;28;20511;-51
2022/10/29 05:21:32;;;;;;;2.10;1.90;;;18.20;87.40;;;;;;5031717;28;21019;-49
2022/10/29 05:24:02;;;;;;;2.20;1.97;;;18.20;87.40;;;;;;5033274;28;20455;-49
2022/10/29 05:26:31;;;;;;;2.53;1.70;;;18.20;87.30;;;;;;5032532;28;20514;-51
2022/10/29 05:29:00;;;;;;;2.40;1.83;;;18.20;87.30;;;;;;5033394;28;20470;-51
2022/10/29 05:31:28;;;;;;;2.53;2.10;;;18.20;87.40;;;;;;5030947;28;20499;-52
2022/10/29 05:33:57;;;;;;;2.50;1.93;;;18.20;87.30;;;;;;5047573;28;20444;-51
2022/10/29 05:36:25;;;;;;;2.70;2.20;;;18.20;87.30;;;;;;5031650;28;20507;-52
2022/10/29 05:38:54;;;;;;;1.93;1.80;;;18.20;87.30;;;;;;5032535;28;20439;-53
2022/10/29 05:41:24;;;;;;;2.33;1.80;;;18.20;87.40;;;;;;5044431;28;20836;-52
2022/10/29 05:43:52;;;;;;;2.33;2.13;;;18.20;88.70;;;;;;5032609;28;20427;-51
2022/10/29 05:46:21;;;;;;;2.53;1.80;;;18.20;87.40;;;;;;5030787;28;20563;-52
2022/10/29 05:48:49;;;;;;;2.13;1.80;;;18.20;87.30;;;;;;5035241;28;20939;-51
2022/10/29 05:51:18;;;;;;;3.70;2.33;;;18.20;87.30;;;;;;5031081;28;20471;-53
2022/10/29 05:53:47;;;;;;;2.30;2.10;;;18.20;87.50;;;;;;5023653;28;20446;-52
2022/10/29 05:56:16;;;;;;;2.47;2.00;;;18.20;87.40;;;;;;5029585;28;20521;-50
2022/10/29 05:58:49;;;;;;;2.10;1.90;;;18.20;87.50;;;;;;5032110;28;20443;-52
2022/10/29 06:01:18;;;;;;;2.17;1.67;;;18.20;88.60;;;;;;5028198;28;20467;-51
2022/10/29 06:03:47;;;;;;;4.80;3.10;;;18.20;87.50;;;;;;5031005;28;20879;-50
2022/10/29 06:06:16;;;;;;;2.67;2.30;;;18.20;87.60;;;;;;5031491;28;20475;-51
2022/10/29 06:08:45;;;;;;;3.53;2.07;;;18.20;87.50;;;;;;5032028;28;20436;-51
2022/10/29 06:11:13;;;;;;;3.17;2.07;;;18.20;87.50;;;;;;5031484;28;20507;-51
2022/10/29 06:13:42;;;;;;;2.97;2.00;;;18.20;87.60;;;;;;5024818;28;20440;-53
2022/10/29 06:16:12;;;;;;;2.53;2.30;;;18.20;87.50;;;;;;5031015;28;20467;-51
2022/10/29 06:18:40;;;;;;;2.80;1.83;;;18.20;87.50;;;;;;5033079;28;20451;-52
2022/10/29 06:21:09;;;;;;;2.50;2.30;;;18.20;87.60;;;;;;5031516;28;20505;-52
2022/10/29 06:23:38;;;;;;;2.37;2.10;;;18.20;87.50;;;;;;5040643;28;20432;-51
2022/10/29 06:26:06;;;;;;;2.73;2.50;;;18.20;87.50;;;;;;5028071;28;20460;-51
2022/10/29 06:28:35;;;;;;;2.30;2.10;;;18.20;87.50;;;;;;5056635;28;20449;-52
2022/10/29 06:31:04;;;;;;;2.33;2.03;;;18.20;87.40;;;;;;5037838;28;21053;-50
2022/10/29 06:33:34;;;;;;;2.53;2.03;;;18.20;87.50;;;;;;5029250;28;20883;-51
2022/10/29 06:36:03;;;;;;;1.47;1.20;;;18.20;87.50;;;;;;5036997;28;21036;-49
2022/10/29 06:38:31;;;;;;;2.27;2.07;;;18.20;87.50;;;;;;5033450;28;20472;-50
2022/10/29 06:41:01;;;;;;;2.33;1.57;;;18.20;87.50;;;;;;5038576;28;20439;-51
2022/10/29 06:43:29;;;;;;;3.10;2.33;;;18.20;87.40;;;;;;5032282;28;20498;-51
2022/10/29 06:45:58;;;;;;;3.40;1.80;;;18.20;87.40;;;;;;5039156;28;20463;-51
2022/10/29 06:48:27;;;;;;;2.37;2.17;;;18.20;87.40;;;;;;5041752;28;20451;-49
2022/10/29 06:50:58;;;;;;;2.67;2.07;;;18.20;87.40;;;;;;5034907;28;20462;-52
2022/10/29 06:53:27;;;;;;;4.17;1.90;;;18.20;87.50;;;;;;5023403;28;20440;-52
2022/10/29 06:55:56;;;;;;;1.60;1.50;;;18.20;87.40;;;;;;5029693;28;20552;-51
2022/10/29 06:58:25;;;;;;;2.13;1.80;;;18.20;87.50;;;;;;5024700;28;20447;-51
2022/10/29 07:00:53;;;;;;;3.00;2.27;;;18.10;87.40;;;;;;5030117;28;20468;-53
2022/10/29 07:03:22;;;;;;;2.80;1.90;;;18.10;87.50;;;;;;5024187;28;20447;-50
2022/10/29 07:05:57;;;;;;;2.60;2.00;;;18.10;87.60;;;;;;5030713;28;20454;-50
2022/10/29 07:08:27;;;;;;;3.30;2.00;;;18.10;87.60;;;;;;5030961;28;20454;-50
2022/10/29 07:10:56;;;;;;;2.20;1.63;;;18.10;87.60;;;;;;5027611;28;20467;-51
2022/10/29 07:13:25;;;;;;;3.43;1.57;;;18.10;87.50;;;;;;5031342;28;20464;-50
2022/10/29 07:15:53;;;;;;;2.30;1.73;;;18.10;87.50;;;;;;5035229;28;20455;-52
2022/10/29 07:18:22;;;;;;;4.23;2.20;;;18.10;87.60;;;;;;5027651;28;20444;-51
2022/10/29 07:20:51;;;;;;;2.90;1.93;;;18.10;87.60;;;;;;5030372;28;20545;-50
2022/10/29 07:23:21;;;;;;;3.23;2.00;;;18.10;87.70;;;;;;5030964;28;20435;-53
2022/10/29 07:25:52;;;;;;;4.47;2.10;;;18.10;87.70;;;;;;5030589;28;20470;-53
2022/10/29 07:28:24;;;;;;;2.60;1.83;;;18.10;87.70;;;;;;5030349;28;20862;-50
2022/10/29 07:30:53;;;;;;;2.57;2.00;;;18.10;87.80;;;;;;5023387;28;20460;-49
2022/10/29 07:33:22;;;;;;;4.87;2.33;;;18.10;87.80;;;;;;5029757;28;20467;-52
2022/10/29 07:35:50;;;;;;;2.23;1.90;;;18.10;87.80;;;;;;5030510;28;20452;-50
2022/10/29 07:38:20;;;;;;;2.60;1.80;;;18.10;87.90;;;;;;5030326;28;20440;-51
2022/10/29 07:40:50;;;;;;;2.87;2.27;;;18.10;87.90;;;;;;5029931;28;20951;-50
2022/10/29 07:43:20;;;;;;;3.57;2.40;;;18.10;87.90;;;;;;5029422;28;20448;-50
2022/10/29 07:45:50;;;;;;;3.73;2.00;;;18.10;88.00;;;;;;5021833;28;20480;-49
2022/10/29 07:48:20;;;;;;;2.07;1.87;;;18.10;87.90;;;;;;5036318;28;20530;-51
2022/10/29 07:50:49;;;;;;;3.07;2.23;;;18.10;88.00;;;;;;5041588;28;20478;-51
2022/10/29 07:53:18;;;;;;;2.37;2.00;;;18.10;87.90;;;;;;5030709;28;20817;-51
2022/10/29 07:55:53;;;;;;;3.07;1.80;;;18.10;88.10;;;;;;5028089;28;20456;-51
2022/10/29 07:58:23;;;;;;;3.10;2.57;;;18.10;88.00;;;;;;5028092;28;20834;-53
2022/10/29 08:00:52;;;;;;;2.17;2.00;;;18.10;88.00;;;;;;5021689;28;20982;-50
2022/10/29 08:03:21;;;;;;;2.30;2.10;;;18.10;88.40;;;;;;5024079;28;20451;-52
2022/10/29 08:05:50;;;;;;;3.07;2.07;;;18.10;88.40;;;;;;5048387;22;20500;-49
2022/10/29 08:08:23;;;;;;;3.60;2.13;;;18.10;88.40;;;;;;5073023;28;20537;-49
2022/10/29 08:10:58;;;;;;;2.27;2.07;;;18.10;88.40;;;;;;5053536;28;20748;-48
2022/10/29 08:13:27;;;;;;;4.30;1.80;;;18.10;88.30;;;;;;5072010;28;20440;-48
2022/10/29 08:15:56;;;;;;;2.23;2.03;;;18.10;88.40;;;;;;5088016;28;20502;-48
2022/10/29 08:18:25;;;;;;;2.93;2.10;;;18.10;88.50;;;;;;5088817;28;20430;-49
2022/10/29 08:20:53;;;;;;;3.40;2.20;;;18.10;88.60;;;;;;5088278;28;20987;-49
2022/10/29 08:23:22;;;;;;;4.20;2.07;;;18.10;88.90;;;;;;5089659;28;20436;-49
2022/10/29 08:25:51;;;;;;;3.80;2.27;;;18.10;89.00;;;;;;5089487;28;20868;-49
2022/10/29 08:28:21;;;;;;;2.43;2.13;;;18.10;89.00;;;;;;5073165;28;20435;-49
2022/10/29 08:30:53;;;;;;;4.10;2.10;;;18.10;89.20;;;;;;5084232;28;20433;-49
2022/10/29 08:33:22;;;;;;;2.87;1.87;;;18.10;89.20;;;;;;5088493;28;20437;-49
2022/10/29 08:35:51;;;;;;;3.20;2.33;;;18.10;89.30;;;;;;5088981;28;20457;-49
2022/10/29 08:38:22;;;;;;;6.00;2.43;;;18.10;89.30;;;;;;5089890;28;20515;-49
2022/10/29 08:41:02;;;;;;;4.47;2.23;;;18.10;89.40;;;;;;5085587;28;20438;-49
2022/10/29 08:44:01;;;;;;;2.50;2.20;;;18.00;89.20;;;;;;5088353;28;20437;-49
2022/10/29 08:46:40;;;;;;;3.63;2.63;;;18.00;89.10;;;;;;5087906;28;20453;-49
2022/10/29 08:49:15;;;;;;;3.10;2.10;;;18.10;89.40;;;;;;5085772;28;20726;-49
2022/10/29 08:51:49;;;;;;;3.43;2.27;;;18.00;89.40;;;;;;5071826;28;20468;-49
2022/10/29 08:54:18;;;;;;;3.37;2.27;;;18.00;89.20;;;;;;5090251;28;20440;-48
2022/10/29 08:57:12;;;;;;;2.73;2.33;;;18.00;89.40;;;;;;5071957;28;20472;-48
2022/10/29 08:59:49;;;;;;;2.17;1.90;;;18.00;89.30;;;;;;5083634;28;20445;-49
2022/10/29 09:02:18;;;;;;;2.10;1.90;;;18.00;90.10;;;;;;5087066;28;20478;-49
2022/10/29 09:04:47;;;;;;;2.33;2.13;;;18.00;89.10;;;;;;5072647;28;20838;-48
2022/10/29 09:07:33;;;;;;;1.70;1.60;;;18.00;88.90;;;;;;5079870;28;20552;-48
2022/10/29 09:10:07;;;;;;;2.90;2.13;;;18.10;88.40;;;;;;5077645;28;20469;-49
2022/10/29 09:12:56;;;;;;;2.13;1.93;;;18.10;88.40;;;;;;5081472;28;20461;-49
2022/10/29 09:15:56;;;;;;;3.80;2.97;;;18.00;88.30;;;;;;5086648;28;20490;-49
2022/10/29 09:18:36;;;;;;;4.40;2.27;;;18.00;88.30;;;;;;5066883;28;20830;-49
2022/10/29 09:21:16;;;;;;;5.23;2.57;;;18.00;88.30;;;;;;5062074;28;20975;-49
2022/10/29 09:23:58;;;;;;;4.23;2.20;;;18.00;88.90;;;;;;5064097;28;20475;-49
2022/10/29 09:26:31;;;;;;;3.47;2.57;;;18.10;89.40;;;;;;5068117;28;20481;-49
2022/10/29 09:29:15;;;;;;;4.57;3.70;;;18.10;89.50;;;;;;5083666;28;20525;-50
2022/10/29 09:31:48;;;;;;;11.23;5.00;;;18.10;90.40;;;;;;5070233;28;20982;-50
2022/10/29 09:34:25;;;;;;;8.40;4.90;;;18.10;91.20;;;;;;5063253;28;20440;-50
2022/10/29 09:36:55;;;;;;;5.80;4.30;;;18.10;91.90;;;;;;5087422;28;20480;-49
2022/10/29 09:39:29;;;;;;;8.70;4.53;;;18.10;92.10;;;;;;5071226;28;20448;-48
2022/10/29 09:42:05;;;;;;;10.87;5.70;;;18.10;91.40;;;;;;5070956;28;20475;-48
2022/10/29 09:44:38;;;;;;;13.27;5.10;;;18.10;91.50;;;;;;5058255;28;20533;-49
2022/10/29 09:47:19;;;;;;;7.20;4.70;;;18.10;91.50;;;;;;5088496;28;20465;-47
2022/10/29 09:49:58;;;;;;;6.97;4.30;;;18.20;91.20;;;;;;5081220;28;20959;-48
2022/10/29 09:52:39;;;;;;;9.30;4.40;;;18.10;91.30;;;;;;5091110;28;20452;-48
2022/10/29 09:55:17;;;;;;;9.23;4.80;;;18.20;91.40;;;;;;5085064;28;20805;-49
2022/10/29 09:57:48;;;;;;;11.00;4.93;;;18.20;91.50;;;;;;5084000;28;20472;-48
2022/10/29 10:00:20;;;;;;;9.10;4.20;;;18.20;91.60;;;;;;5063562;28;20441;-48
2022/10/29 10:02:57;;;;;;;10.40;5.00;;;18.20;91.70;;;;;;5070723;28;20492;-48
2022/10/29 10:05:28;;;;;;;6.27;4.00;;;18.10;91.90;;;;;;5088593;28;20437;-48
2022/10/29 10:08:08;;;;;;;11.00;4.60;;;18.20;91.70;;;;;;5092368;28;20825;-48
2022/10/29 10:10:50;;;;;;;8.67;5.53;;;18.20;91.60;;;;;;5086831;28;20545;-49
2022/10/29 10:13:20;;;;;;;8.20;5.17;;;18.20;91.50;;;;;;5089441;28;20524;-48
2022/10/29 10:15:56;;;;;;;9.03;5.37;;;18.20;91.50;;;;;;5091436;28;20922;-48
2022/10/29 10:18:27;;;;;;;8.90;4.60;;;18.20;91.60;;;;;;5091701;28;20465;-48
2022/10/29 10:21:03;;;;;;;9.90;4.30;;;18.20;91.60;;;;;;5091056;28;20496;-48
2022/10/29 10:23:42;;;;;;;6.50;4.30;;;18.20;91.90;;;;;;5092527;28;20417;-48
2022/10/29 10:26:35;;;;;;;10.73;5.80;;;18.20;92.10;;;;;;5090000;28;20552;-48
2022/10/29 10:29:06;;;;;;;9.13;4.70;;;18.20;91.90;;;;;;5091036;28;20482;-49
2022/10/29 10:31:34;;;;;;;5.37;4.53;;;18.20;92.80;;;;;;5090670;28;21036;-49
2022/10/29 10:34:09;;;;;;;8.97;4.33;;;18.20;92.80;;;;;;5069006;28;20773;-49
2022/10/29 10:36:42;;;;;;;6.53;3.80;;;18.20;92.70;;;;;;5091495;28;20500;-49
2022/10/29 10:39:27;;;;;;;9.03;4.80;;;18.20;92.90;;;;;;5056281;28;20837;-49
2022/10/29 10:41:58;;;;;;;7.03;4.50;;;18.10;93.00;;;;;;5062835;28;20843;-49
2022/10/29 10:44:27;;;;;;;7.00;4.17;;;18.10;92.80;;;;;;5075212;28;20441;-49
2022/10/29 10:46:59;;;;;;;4.40;3.80;;;18.10;92.80;;;;;;5073287;28;20983;-49
2022/10/29 10:49:33;;;;;;;8.50;4.20;;;18.10;92.80;;;;;;5074495;28;20468;-49
2022/10/29 10:52:05;;;;;;;8.43;4.13;;;18.10;92.80;;;;;;5090052;28;20479;-49
2022/10/29 10:54:36;;;;;;;5.80;3.77;;;18.10;92.70;;;;;;5075137;28;20437;-49
2022/10/29 10:57:19;;;;;;;7.00;4.13;;;18.10;92.50;;;;;;5091406;28;20531;-49
2022/10/29 10:59:58;;;;;;;8.93;3.83;;;18.10;92.40;;;;;;5091339;28;20429;-49
2022/10/29 11:02:33;;;;;;;6.43;4.30;;;18.10;92.40;;;;;;5091910;28;20465;-49
2022/10/29 11:05:14;;;;;;;5.43;3.93;;;18.00;92.20;;;;;;5074497;28;20433;-49
2022/10/29 11:07:47;;;;;;;6.20;3.90;;;18.10;92.10;;;;;;5074764;28;20448;-49
2022/10/29 11:10:19;;;;;;;4.50;3.60;;;18.00;92.00;;;;;;5074205;28;20449;-49
2022/10/29 11:12:53;;;;;;;4.10;3.60;;;18.00;92.00;;;;;;5072645;28;20497;-49
2022/10/29 11:15:29;;;;;;;6.50;3.73;;;18.00;92.00;;;;;;5091315;28;20518;-49
2022/10/29 11:18:04;;;;;;;5.20;3.67;;;18.00;91.90;;;;;;5091235;28;20456;-48
2022/10/29 11:20:36;;;;;;;6.67;3.30;;;18.00;91.80;;;;;;5060684;28;20461;-49
2022/10/29 11:23:27;;;;;;;5.20;3.30;;;18.00;91.70;;;;;;5054623;28;20458;-49
2022/10/29 11:26:06;;;;;;;6.37;4.70;;;18.00;91.70;;;;;;5073048;28;20482;-49
2022/10/29 11:28:39;;;;;;;3.70;3.40;;;18.00;91.70;;;;;;5075846;28;20932;-49
2022/10/29 11:31:16;;;;;;;4.60;3.60;;;18.00;91.60;;;;;;5073892;28;20476;-49
2022/10/29 11:33:51;;;;;;;4.13;3.40;;;18.00;91.50;;;;;;5084868;28;20441;-49
2022/10/29 11:36:23;;;;;;;5.93;3.63;;;18.00;92.00;;;;;;5090203;28;20548;-49
2022/10/29 11:38:56;;;;;;;5.60;3.40;;;18.00;91.40;;;;;;5057781;28;20476;-49
2022/10/29 11:41:28;;;;;;;4.73;3.70;;;18.00;91.40;;;;;;5068999;28;20987;-49
2022/10/29 11:43:56;;;;;;;5.53;3.40;;;18.00;91.30;;;;;;5054360;28;20630;-49
2022/10/29 11:46:38;;;;;;;7.23;3.87;;;18.00;91.30;;;;;;5053635;28;20470;-49
2022/10/29 11:49:26;;;;;;;5.90;3.73;;;18.00;91.20;;;;;;5054466;28;20424;-49
2022/10/29 11:52:08;;;;;;;6.03;3.80;;;18.00;91.20;;;;;;5083889;28;20565;-49
2022/10/29 11:54:45;;;;;;;4.03;3.50;;;18.00;91.10;;;;;;5057383;28;20521;-49
2022/10/29 11:57:19;;;;;;;5.20;3.53;;;18.00;91.10;;;;;;5087783;28;20480;-49
2022/10/29 12:00:03;;;;;;;4.53;3.20;;;18.00;91.00;;;;;;5092846;28;20833;-49
2022/10/29 12:03:13;;;;;;;5.83;3.83;;;18.00;91.00;;;;;;5090563;28;21010;-49
2022/10/29 12:05:45;;;;;;;6.57;3.37;;;18.00;91.00;;;;;;5091593;28;20924;-49
2022/10/29 12:08:29;;;;;;;5.50;3.90;;;18.00;90.90;;;;;;5073940;28;20787;-49
2022/10/29 12:11:04;;;;;;;4.33;2.90;;;18.00;90.90;;;;;;5089612;28;20839;-49
2022/10/29 12:13:47;;;;;;;3.07;2.77;;;18.00;90.90;;;;;;5092259;28;20441;-49
2022/10/29 12:16:28;;;;;;;8.20;3.90;;;18.00;90.80;;;;;;5072504;28;20482;-49
2022/10/29 12:19:06;;;;;;;6.43;3.47;;;18.00;90.80;;;;;;5073603;28;20468;-49
2022/10/29 12:21:53;;;;;;;4.97;3.97;;;18.00;90.80;;;;;;5072623;28;20472;-49
2022/10/29 12:24:37;;;;;;;3.93;3.53;;;18.00;90.80;;;;;;5074270;28;20475;-49
2022/10/29 12:27:14;;;;;;;10.23;3.80;;;18.10;90.80;;;;;;5067564;28;20470;-49
2022/10/29 12:29:50;;;;;;;4.80;3.30;;;18.00;90.70;;;;;;5072759;28;20437;-49
2022/10/29 12:35:26;;;;;;;3.77;3.23;;;18.10;90.60;;;;;;5024236;28;20451;-70
2022/10/29 12:38:13;;;;;;;3.77;2.87;;;18.00;90.80;;;;;;5011483;28;20530;-69
2022/10/29 12:40:46;;;;;;;7.23;3.90;;;18.00;90.60;;;;;;5046482;28;20978;-69
2022/10/29 12:43:19;;;;;;;9.48;5.28;;;18.10;90.40;;;;;;5027126;28;20478;-71
2022/10/29 12:45:53;;;;;;;11.43;6.00;;;18.20;90.00;;;;;;5047154;28;20637;-72
2022/10/29 12:48:49;;;;;;;7.77;4.00;;;18.30;89.50;;;;;;5032818;28;20478;-71
2022/10/29 12:51:24;;;;;;;7.47;4.93;;;18.40;89.40;;;;;;5047257;28;20466;-71
2022/10/29 12:54:15;;;;;;;5.97;4.40;;;18.40;89.70;;;;;;5030333;28;20411;-71
2022/10/29 12:56:45;;;;;;;8.30;3.90;;;18.40;90.20;;;;;;5027007;28;20566;-71
2022/10/29 12:59:33;;;;;;;8.00;4.30;;;18.50;90.50;;;;;;5046943;28;20494;-71
2022/10/29 13:02:42;;;;;;;6.77;4.17;;;18.50;90.60;;;;;;5040899;28;21014;-71
2022/10/29 13:05:19;;;;;;;10.33;3.80;;;18.50;90.60;;;;;;5010197;28;20803;-71
2022/10/29 13:08:25;;;;;;;8.70;3.90;;;18.50;90.80;;;;;;5044978;28;20516;-70
2022/10/29 13:10:56;;;;;;;6.93;3.50;;;18.50;91.50;;;;;;5045346;28;20528;-70
2022/10/29 13:13:57;;;;;;;9.13;4.50;;;18.50;91.00;;;;;;5027538;28;20428;-70
2022/10/29 13:16:31;;;;;;;8.23;3.93;;;18.50;90.80;;;;;;5045573;28;20454;-69
2022/10/29 13:19:23;;;;;;;9.80;3.47;;;18.50;90.90;;;;;;5030711;28;21052;-70
2022/10/29 13:22:08;;;;;;;6.30;3.70;;;18.40;91.10;;;;;;5046381;28;20474;-69